sensor_id;sensor_type;location;lat;lon;timestamp;pressure;altitude;pressure_sealevel;temperature;humidity
19526;BME280;9907;42.676;26.348;2022-07-23T00:00:14;98939.44;;;24.07;44.04
19526;BME280;9907;42.676;26.348;2022-07-23T00:02:40;98940.50;;;24.06;43.82
19526;BME280;9907;42.676;26.348;2022-07-23T00:05:05;98942.25;;;24.00;44.09
19526;BME280;9907;42.676;26.348;2022-07-23T00:07:31;98940.56;;;23.99;44.18
19526;BME280;9907;42.676;26.348;2022-07-23T00:09:56;98945.44;;;23.97;44.90
19526;BME280;9907;42.676;26.348;2022-07-23T00:12:22;98945.91;;;23.94;44.61
19526;BME280;9907;42.676;26.348;2022-07-23T00:14:47;98944.88;;;23.89;44.57
19526;BME280;9907;42.676;26.348;2022-07-23T00:17:13;98945.13;;;23.87;45.35
19526;BME280;9907;42.676;26.348;2022-07-23T00:19:38;98940.09;;;23.84;45.10
19526;BME280;9907;42.676;26.348;2022-07-23T00:22:04;98935.94;;;23.82;44.64
19526;BME280;9907;42.676;26.348;2022-07-23T00:24:29;98937.22;;;23.79;45.06
19526;BME280;9907;42.676;26.348;2022-07-23T00:26:55;98940.16;;;23.77;44.31
19526;BME280;9907;42.676;26.348;2022-07-23T00:29:21;98932.22;;;23.76;44.42
19526;BME280;9907;42.676;26.348;2022-07-23T00:31:46;98939.63;;;23.69;45.11
19526;BME280;9907;42.676;26.348;2022-07-23T00:34:12;98932.72;;;23.66;45.34
19526;BME280;9907;42.676;26.348;2022-07-23T00:36:37;98928.09;;;23.67;45.19
19526;BME280;9907;42.676;26.348;2022-07-23T00:39:03;98923.69;;;23.66;44.97
19526;BME280;9907;42.676;26.348;2022-07-23T00:41:29;98930.44;;;23.63;45.04
19526;BME280;9907;42.676;26.348;2022-07-23T00:43:54;98927.53;;;23.58;45.28
19526;BME280;9907;42.676;26.348;2022-07-23T00:46:20;98919.16;;;23.60;45.28
19526;BME280;9907;42.676;26.348;2022-07-23T00:48:46;98925.50;;;23.54;45.22
19526;BME280;9907;42.676;26.348;2022-07-23T00:51:11;98922.44;;;23.44;45.89
19526;BME280;9907;42.676;26.348;2022-07-23T00:53:37;98935.78;;;23.52;45.56
19526;BME280;9907;42.676;26.348;2022-07-23T00:56:03;98919.22;;;23.53;45.70
19526;BME280;9907;42.676;26.348;2022-07-23T00:58:28;98926.19;;;23.49;45.56
19526;BME280;9907;42.676;26.348;2022-07-23T01:00:54;98933.72;;;23.47;46.04
19526;BME280;9907;42.676;26.348;2022-07-23T01:03:20;98923.28;;;23.44;46.31
19526;BME280;9907;42.676;26.348;2022-07-23T01:05:45;98928.72;;;23.44;45.82
19526;BME280;9907;42.676;26.348;2022-07-23T01:08:11;98924.56;;;23.42;46.31
19526;BME280;9907;42.676;26.348;2022-07-23T01:10:37;98924.91;;;23.20;46.25
19526;BME280;9907;42.676;26.348;2022-07-23T01:13:08;98931.16;;;23.27;46.36
19526;BME280;9907;42.676;26.348;2022-07-23T01:15:35;98927.19;;;23.23;46.07
19526;BME280;9907;42.676;26.348;2022-07-23T01:18:03;98929.28;;;23.21;46.36
19526;BME280;9907;42.676;26.348;2022-07-23T01:20:30;98931.81;;;23.23;46.64
19526;BME280;9907;42.676;26.348;2022-07-23T01:22:56;98929.91;;;23.23;45.92
19526;BME280;9907;42.676;26.348;2022-07-23T01:25:22;98940.19;;;23.21;46.39
19526;BME280;9907;42.676;26.348;2022-07-23T01:27:48;98929.28;;;23.21;45.94
19526;BME280;9907;42.676;26.348;2022-07-23T01:30:13;98930.56;;;23.19;45.79
19526;BME280;9907;42.676;26.348;2022-07-23T01:32:39;98924.28;;;23.18;46.42
19526;BME280;9907;42.676;26.348;2022-07-23T01:35:06;98923.22;;;23.19;45.82
19526;BME280;9907;42.676;26.348;2022-07-23T01:37:31;98919.28;;;23.15;46.04
19526;BME280;9907;42.676;26.348;2022-07-23T01:39:57;98914.88;;;23.14;46.45
19526;BME280;9907;42.676;26.348;2022-07-23T01:42:22;98923.06;;;23.14;45.99
19526;BME280;9907;42.676;26.348;2022-07-23T01:44:48;98914.72;;;23.09;46.83
19526;BME280;9907;42.676;26.348;2022-07-23T01:47:14;98915.59;;;23.03;46.84
19526;BME280;9907;42.676;26.348;2022-07-23T01:49:40;98911.81;;;23.04;46.64
19526;BME280;9907;42.676;26.348;2022-07-23T01:52:05;98916.94;;;22.88;47.33
19526;BME280;9907;42.676;26.348;2022-07-23T01:54:34;98918.75;;;23.00;46.71
19526;BME280;9907;42.676;26.348;2022-07-23T01:57:00;98914.75;;;23.03;46.27
19526;BME280;9907;42.676;26.348;2022-07-23T01:59:26;98915.59;;;23.03;46.52
19526;BME280;9907;42.676;26.348;2022-07-23T02:01:52;98912.03;;;23.03;46.68
19526;BME280;9907;42.676;26.348;2022-07-23T02:04:21;98910.78;;;22.99;47.29
19526;BME280;9907;42.676;26.348;2022-07-23T02:06:47;98905.59;;;22.97;47.06
19526;BME280;9907;42.676;26.348;2022-07-23T02:09:13;98913.81;;;22.84;46.68
19526;BME280;9907;42.676;26.348;2022-07-23T02:11:38;98909.06;;;22.73;47.55
19526;BME280;9907;42.676;26.348;2022-07-23T02:14:04;98911.63;;;22.68;47.88
19526;BME280;9907;42.676;26.348;2022-07-23T02:16:30;98911.78;;;22.73;47.62
19526;BME280;9907;42.676;26.348;2022-07-23T02:18:55;98903.81;;;22.78;47.28
19526;BME280;9907;42.676;26.348;2022-07-23T02:21:20;98907.78;;;22.82;46.79
19526;BME280;9907;42.676;26.348;2022-07-23T02:23:46;98904.00;;;22.83;47.13
19526;BME280;9907;42.676;26.348;2022-07-23T02:26:12;98909.44;;;22.83;46.70
19526;BME280;9907;42.676;26.348;2022-07-23T02:28:37;98904.00;;;22.83;47.18
19526;BME280;9907;42.676;26.348;2022-07-23T02:31:03;98906.94;;;22.82;47.48
19526;BME280;9907;42.676;26.348;2022-07-23T02:33:29;98910.69;;;22.80;47.36
19526;BME280;9907;42.676;26.348;2022-07-23T02:35:54;98913.69;;;22.66;47.66
19526;BME280;9907;42.676;26.348;2022-07-23T02:38:20;98912.28;;;22.57;47.84
19526;BME280;9907;42.676;26.348;2022-07-23T02:40:45;98913.81;;;22.46;47.96
19526;BME280;9907;42.676;26.348;2022-07-23T02:43:11;98917.09;;;22.55;47.34
19526;BME280;9907;42.676;26.348;2022-07-23T02:45:36;98918.78;;;22.56;47.17
19526;BME280;9907;42.676;26.348;2022-07-23T02:48:02;98915.41;;;22.60;47.42
19526;BME280;9907;42.676;26.348;2022-07-23T02:50:28;98912.44;;;22.62;47.61
19526;BME280;9907;42.676;26.348;2022-07-23T02:52:53;98923.34;;;22.62;48.05
19526;BME280;9907;42.676;26.348;2022-07-23T02:55:19;98917.09;;;22.61;47.36
19526;BME280;9907;42.676;26.348;2022-07-23T02:57:44;98917.09;;;22.61;47.33
19526;BME280;9907;42.676;26.348;2022-07-23T03:00:10;98918.13;;;22.60;47.64
19526;BME280;9907;42.676;26.348;2022-07-23T03:02:35;98922.13;;;22.58;48.38
19526;BME280;9907;42.676;26.348;2022-07-23T03:05:01;98929.47;;;22.57;48.29
19526;BME280;9907;42.676;26.348;2022-07-23T03:07:27;98930.50;;;22.56;48.03
19526;BME280;9907;42.676;26.348;2022-07-23T03:09:52;98933.41;;;22.55;47.43
19526;BME280;9907;42.676;26.348;2022-07-23T03:12:18;98935.31;;;22.54;47.04
19526;BME280;9907;42.676;26.348;2022-07-23T03:14:43;98941.59;;;22.55;47.68
19526;BME280;9907;42.676;26.348;2022-07-23T03:17:09;98941.59;;;22.55;48.22
19526;BME280;9907;42.676;26.348;2022-07-23T03:19:34;98943.47;;;22.54;47.74
19526;BME280;9907;42.676;26.348;2022-07-23T03:22:00;98947.03;;;22.55;47.66
19526;BME280;9907;42.676;26.348;2022-07-23T03:24:25;98948.72;;;22.56;48.12
19526;BME280;9907;42.676;26.348;2022-07-23T03:27:11;98946.84;;;22.56;48.46
19526;BME280;9907;42.676;26.348;2022-07-23T03:29:37;98948.50;;;22.57;47.96
19526;BME280;9907;42.676;26.348;2022-07-23T03:32:03;98944.72;;;22.58;48.72
19526;BME280;9907;42.676;26.348;2022-07-23T03:34:29;98943.47;;;22.61;49.02
19526;BME280;9907;42.676;26.348;2022-07-23T03:36:54;98932.34;;;22.62;48.26
19526;BME280;9907;42.676;26.348;2022-07-23T03:39:20;98941.59;;;22.61;48.07
19526;BME280;9907;42.676;26.348;2022-07-23T03:41:45;98939.25;;;22.65;48.24
19526;BME280;9907;42.676;26.348;2022-07-23T03:44:11;98936.31;;;22.66;48.17
19526;BME280;9907;42.676;26.348;2022-07-23T03:46:36;98935.69;;;22.71;48.59
19526;BME280;9907;42.676;26.348;2022-07-23T03:49:02;98934.22;;;22.75;48.98
19526;BME280;9907;42.676;26.348;2022-07-23T03:51:27;98939.22;;;22.78;49.01
19526;BME280;9907;42.676;26.348;2022-07-23T03:53:53;98928.72;;;22.82;48.70
19526;BME280;9907;42.676;26.348;2022-07-23T03:56:19;98940.00;;;22.85;49.43
19526;BME280;9907;42.676;26.348;2022-07-23T03:58:45;98939.56;;;22.88;49.61
19526;BME280;9907;42.676;26.348;2022-07-23T04:01:11;98933.66;;;22.91;48.78
19526;BME280;9907;42.676;26.348;2022-07-23T04:03:37;98937.25;;;22.92;48.61
19526;BME280;9907;42.676;26.348;2022-07-23T04:06:02;98937.03;;;22.93;48.89
19526;BME280;9907;42.676;26.348;2022-07-23T04:08:28;98947.03;;;22.99;48.20
19526;BME280;9907;42.676;26.348;2022-07-23T04:10:55;98945.34;;;23.05;49.07
19526;BME280;9907;42.676;26.348;2022-07-23T04:13:21;98943.63;;;23.10;49.51
19526;BME280;9907;42.676;26.348;2022-07-23T04:15:46;98942.75;;;23.16;49.72
19526;BME280;9907;42.676;26.348;2022-07-23T04:18:12;98946.47;;;23.22;49.74
19526;BME280;9907;42.676;26.348;2022-07-23T04:20:37;98945.19;;;23.24;49.09
19526;BME280;9907;42.676;26.348;2022-07-23T04:23:03;98943.03;;;23.33;48.94
19526;BME280;9907;42.676;26.348;2022-07-23T04:25:28;98950.91;;;23.48;48.65
19526;BME280;9907;42.676;26.348;2022-07-23T04:27:54;98949.00;;;23.73;48.57
19526;BME280;9907;42.676;26.348;2022-07-23T04:30:19;98948.75;;;23.99;48.23
19526;BME280;9907;42.676;26.348;2022-07-23T04:32:45;98949.81;;;24.23;48.65
19526;BME280;9907;42.676;26.348;2022-07-23T04:35:10;98953.66;;;24.52;48.14
19526;BME280;9907;42.676;26.348;2022-07-23T04:37:36;98951.06;;;24.93;46.42
19526;BME280;9907;42.676;26.348;2022-07-23T04:40:01;98952.34;;;25.32;45.12
19526;BME280;9907;42.676;26.348;2022-07-23T04:42:27;98951.13;;;25.70;44.20
19526;BME280;9907;42.676;26.348;2022-07-23T04:44:52;98940.44;;;26.03;44.48
19526;BME280;9907;42.676;26.348;2022-07-23T04:47:18;98944.59;;;26.29;44.15
19526;BME280;9907;42.676;26.348;2022-07-23T04:49:43;98943.78;;;26.68;43.76
19526;BME280;9907;42.676;26.348;2022-07-23T04:52:09;98940.22;;;27.07;42.67
19526;BME280;9907;42.676;26.348;2022-07-23T04:54:34;98946.31;;;27.26;42.16
19526;BME280;9907;42.676;26.348;2022-07-23T04:57:00;98941.84;;;27.53;41.98
19526;BME280;9907;42.676;26.348;2022-07-23T04:59:25;98946.69;;;27.80;42.01
19526;BME280;9907;42.676;26.348;2022-07-23T05:01:51;98945.47;;;28.26;39.71
19526;BME280;9907;42.676;26.348;2022-07-23T05:04:16;98946.38;;;28.53;40.58
19526;BME280;9907;42.676;26.348;2022-07-23T05:06:42;98953.75;;;28.91;38.99
19526;BME280;9907;42.676;26.348;2022-07-23T05:09:07;98950.25;;;29.22;37.97
19526;BME280;9907;42.676;26.348;2022-07-23T05:11:33;98941.41;;;29.47;37.56
19526;BME280;9907;42.676;26.348;2022-07-23T05:13:58;98944.69;;;29.76;37.49
19526;BME280;9907;42.676;26.348;2022-07-23T05:16:23;98936.38;;;30.03;36.82
19526;BME280;9907;42.676;26.348;2022-07-23T05:18:49;98936.81;;;30.31;35.92
19526;BME280;9907;42.676;26.348;2022-07-23T05:21:14;98942.47;;;30.57;35.64
19526;BME280;9907;42.676;26.348;2022-07-23T05:23:40;98939.00;;;30.81;35.26
19526;BME280;9907;42.676;26.348;2022-07-23T05:26:05;98938.28;;;31.16;35.03
19526;BME280;9907;42.676;26.348;2022-07-23T05:28:31;98940.53;;;31.45;34.83
19526;BME280;9907;42.676;26.348;2022-07-23T05:30:56;98932.56;;;31.58;34.21
19526;BME280;9907;42.676;26.348;2022-07-23T05:33:22;98940.81;;;31.78;34.14
19526;BME280;9907;42.676;26.348;2022-07-23T05:35:48;98938.06;;;32.04;34.70
19526;BME280;9907;42.676;26.348;2022-07-23T05:38:13;98943.84;;;32.12;33.75
19526;BME280;9907;42.676;26.348;2022-07-23T05:40:39;98937.72;;;32.30;33.66
19526;BME280;9907;42.676;26.348;2022-07-23T05:43:04;98933.50;;;32.58;33.13
19526;BME280;9907;42.676;26.348;2022-07-23T05:45:29;98935.91;;;32.80;33.01
19526;BME280;9907;42.676;26.348;2022-07-23T05:47:55;98931.41;;;32.89;32.29
19526;BME280;9907;42.676;26.348;2022-07-23T05:50:21;98935.75;;;33.10;32.33
19526;BME280;9907;42.676;26.348;2022-07-23T05:52:46;98940.72;;;33.18;31.51
19526;BME280;9907;42.676;26.348;2022-07-23T05:55:13;98929.47;;;33.39;31.44
19526;BME280;9907;42.676;26.348;2022-07-23T05:57:39;98932.41;;;33.52;31.82
19526;BME280;9907;42.676;26.348;2022-07-23T06:00:06;98931.69;;;33.75;31.67
19526;BME280;9907;42.676;26.348;2022-07-23T06:02:31;98924.97;;;33.82;30.88
19526;BME280;9907;42.676;26.348;2022-07-23T06:04:57;98926.06;;;33.86;31.06
19526;BME280;9907;42.676;26.348;2022-07-23T06:07:22;98929.31;;;33.93;30.96
19526;BME280;9907;42.676;26.348;2022-07-23T06:09:48;98937.41;;;34.18;30.67
19526;BME280;9907;42.676;26.348;2022-07-23T06:12:15;98934.38;;;34.43;30.67
19526;BME280;9907;42.676;26.348;2022-07-23T06:14:40;98922.03;;;34.54;30.18
19526;BME280;9907;42.676;26.348;2022-07-23T06:17:06;98926.91;;;34.62;30.52
19526;BME280;9907;42.676;26.348;2022-07-23T06:19:31;98924.50;;;34.80;30.17
19526;BME280;9907;42.676;26.348;2022-07-23T06:21:57;98927.81;;;35.00;29.79
19526;BME280;9907;42.676;26.348;2022-07-23T06:24:22;98922.38;;;35.33;29.60
19526;BME280;9907;42.676;26.348;2022-07-23T06:26:48;98930.59;;;35.56;29.39
19526;BME280;9907;42.676;26.348;2022-07-23T06:29:13;98921.13;;;35.76;28.99
19526;BME280;9907;42.676;26.348;2022-07-23T06:31:39;98928.56;;;35.94;28.68
19526;BME280;9907;42.676;26.348;2022-07-23T06:34:04;98934.25;;;36.03;28.01
19526;BME280;9907;42.676;26.348;2022-07-23T06:36:30;98928.03;;;36.25;28.14
19526;BME280;9907;42.676;26.348;2022-07-23T06:38:55;98924.00;;;36.44;27.38
19526;BME280;9907;42.676;26.348;2022-07-23T06:41:21;98916.53;;;36.58;26.83
19526;BME280;9907;42.676;26.348;2022-07-23T06:43:48;98916.72;;;36.76;26.61
19526;BME280;9907;42.676;26.348;2022-07-23T06:46:13;98921.31;;;36.94;26.22
19526;BME280;9907;42.676;26.348;2022-07-23T06:48:39;98924.41;;;36.92;26.35
19526;BME280;9907;42.676;26.348;2022-07-23T06:51:04;98917.81;;;37.02;26.30
19526;BME280;9907;42.676;26.348;2022-07-23T06:53:30;98915.88;;;37.02;25.98
19526;BME280;9907;42.676;26.348;2022-07-23T06:55:56;98913.16;;;37.11;26.38
19526;BME280;9907;42.676;26.348;2022-07-23T06:58:21;98917.88;;;37.24;26.13
19526;BME280;9907;42.676;26.348;2022-07-23T07:00:47;98908.81;;;37.41;26.10
19526;BME280;9907;42.676;26.348;2022-07-23T07:03:12;98921.47;;;37.61;25.95
19526;BME280;9907;42.676;26.348;2022-07-23T07:05:38;98919.69;;;37.87;25.65
19526;BME280;9907;42.676;26.348;2022-07-23T07:08:05;98910.06;;;38.24;25.36
19526;BME280;9907;42.676;26.348;2022-07-23T07:10:31;98914.69;;;38.76;25.09
19526;BME280;9907;42.676;26.348;2022-07-23T07:12:56;98910.88;;;39.46;24.56
19526;BME280;9907;42.676;26.348;2022-07-23T07:15:22;98915.03;;;40.59;22.87
19526;BME280;9907;42.676;26.348;2022-07-23T07:17:47;98913.16;;;42.53;21.57
19526;BME280;9907;42.676;26.348;2022-07-23T07:20:13;98912.44;;;43.56;20.73
19526;BME280;9907;42.676;26.348;2022-07-23T07:22:39;98919.44;;;42.98;21.33
19526;BME280;9907;42.676;26.348;2022-07-23T07:25:05;98916.91;;;42.57;21.32
19526;BME280;9907;42.676;26.348;2022-07-23T07:27:31;98922.69;;;42.15;21.48
19526;BME280;9907;42.676;26.348;2022-07-23T07:29:56;98914.38;;;42.07;21.60
19526;BME280;9907;42.676;26.348;2022-07-23T07:32:22;98914.56;;;41.90;21.39
19526;BME280;9907;42.676;26.348;2022-07-23T07:34:47;98917.13;;;42.40;21.39
19526;BME280;9907;42.676;26.348;2022-07-23T07:37:13;98915.25;;;42.44;21.63
19526;BME280;9907;42.676;26.348;2022-07-23T07:39:38;98915.72;;;42.34;21.48
19526;BME280;9907;42.676;26.348;2022-07-23T07:42:04;98909.19;;;43.02;21.60
19526;BME280;9907;42.676;26.348;2022-07-23T07:44:30;98900.97;;;43.09;21.02
19526;BME280;9907;42.676;26.348;2022-07-23T07:46:55;98914.13;;;43.05;21.20
19526;BME280;9907;42.676;26.348;2022-07-23T07:49:21;98898.41;;;43.04;20.94
19526;BME280;9907;42.676;26.348;2022-07-23T07:51:47;98906.72;;;43.41;21.02
19526;BME280;9907;42.676;26.348;2022-07-23T07:54:12;98896.94;;;43.62;20.39
19526;BME280;9907;42.676;26.348;2022-07-23T07:56:38;98889.38;;;43.79;20.74
19526;BME280;9907;42.676;26.348;2022-07-23T07:59:03;98894.31;;;43.82;20.56
19526;BME280;9907;42.676;26.348;2022-07-23T08:01:29;98895.47;;;43.81;20.18
19526;BME280;9907;42.676;26.348;2022-07-23T08:03:55;98889.59;;;43.58;20.07
19526;BME280;9907;42.676;26.348;2022-07-23T08:06:20;98889.69;;;43.61;20.41
19526;BME280;9907;42.676;26.348;2022-07-23T08:08:47;98891.63;;;43.73;20.34
19526;BME280;9907;42.676;26.348;2022-07-23T08:11:13;98894.81;;;43.44;20.46
19526;BME280;9907;42.676;26.348;2022-07-23T08:13:38;98888.97;;;43.25;20.58
19526;BME280;9907;42.676;26.348;2022-07-23T08:16:04;98884.56;;;43.24;20.77
19526;BME280;9907;42.676;26.348;2022-07-23T08:18:30;98888.41;;;43.59;20.64
19526;BME280;9907;42.676;26.348;2022-07-23T08:20:55;98887.75;;;42.98;20.37
19526;BME280;9907;42.676;26.348;2022-07-23T08:23:21;98873.22;;;43.48;20.40
19526;BME280;9907;42.676;26.348;2022-07-23T08:25:46;98884.06;;;43.61;19.79
19526;BME280;9907;42.676;26.348;2022-07-23T08:28:13;98884.25;;;43.41;19.83
19526;BME280;9907;42.676;26.348;2022-07-23T08:30:41;98880.78;;;43.59;19.91
19526;BME280;9907;42.676;26.348;2022-07-23T08:33:17;98878.97;;;43.51;20.24
19526;BME280;9907;42.676;26.348;2022-07-23T08:35:45;98887.53;;;43.71;20.20
19526;BME280;9907;42.676;26.348;2022-07-23T08:38:13;98886.09;;;43.77;19.83
19526;BME280;9907;42.676;26.348;2022-07-23T08:40:44;98889.78;;;43.65;20.27
19526;BME280;9907;42.676;26.348;2022-07-23T08:43:12;98877.84;;;43.68;19.88
19526;BME280;9907;42.676;26.348;2022-07-23T08:45:40;98879.94;;;43.43;19.87
19526;BME280;9907;42.676;26.348;2022-07-23T08:48:11;98881.69;;;43.36;20.52
19526;BME280;9907;42.676;26.348;2022-07-23T08:50:38;98887.91;;;43.41;20.18
19526;BME280;9907;42.676;26.348;2022-07-23T08:53:07;98880.84;;;43.35;20.18
19526;BME280;9907;42.676;26.348;2022-07-23T08:55:34;98878.47;;;43.22;20.29
19526;BME280;9907;42.676;26.348;2022-07-23T08:58:00;98879.41;;;43.13;20.95
19526;BME280;9907;42.676;26.348;2022-07-23T09:00:25;98869.38;;;42.88;20.38
19526;BME280;9907;42.676;26.348;2022-07-23T09:02:51;98882.03;;;42.94;20.86
19526;BME280;9907;42.676;26.348;2022-07-23T09:05:18;98874.66;;;42.90;20.70
19526;BME280;9907;42.676;26.348;2022-07-23T09:08:07;98872.81;;;42.57;21.20
19526;BME280;9907;42.676;26.348;2022-07-23T09:13:38;98862.50;;;41.80;22.01
19526;BME280;9907;42.676;26.348;2022-07-23T09:16:13;98851.28;;;41.80;22.11
19526;BME280;9907;42.676;26.348;2022-07-23T09:18:43;98861.75;;;41.59;21.95
19526;BME280;9907;42.676;26.348;2022-07-23T09:23:54;98861.44;;;41.40;22.00
19526;BME280;9907;42.676;26.348;2022-07-23T09:26:42;98857.59;;;40.82;22.57
19526;BME280;9907;42.676;26.348;2022-07-23T09:34:22;98850.69;;;39.40;24.15
19526;BME280;9907;42.676;26.348;2022-07-23T09:36:48;98839.31;;;38.68;24.34
19526;BME280;9907;42.676;26.348;2022-07-23T09:39:16;98846.56;;;38.21;25.09
19526;BME280;9907;42.676;26.348;2022-07-23T09:41:47;98840.44;;;37.79;25.07
19526;BME280;9907;42.676;26.348;2022-07-23T09:44:15;98831.66;;;37.41;25.87
19526;BME280;9907;42.676;26.348;2022-07-23T09:46:42;98840.34;;;37.18;26.03
19526;BME280;9907;42.676;26.348;2022-07-23T09:49:26;98831.88;;;36.87;26.97
19526;BME280;9907;42.676;26.348;2022-07-23T09:52:00;98841.94;;;36.61;26.24
19526;BME280;9907;42.676;26.348;2022-07-23T09:57:01;98828.53;;;36.08;27.30
19526;BME280;9907;42.676;26.348;2022-07-23T09:59:30;98816.38;;;35.77;26.83
19526;BME280;9907;42.676;26.348;2022-07-23T10:01:57;98819.75;;;35.74;27.40
19526;BME280;9907;42.676;26.348;2022-07-23T10:04:25;98819.44;;;35.61;27.55
19526;BME280;9907;42.676;26.348;2022-07-23T10:06:53;98813.06;;;35.42;28.30
19526;BME280;9907;42.676;26.348;2022-07-23T10:09:28;98814.81;;;35.38;28.11
19526;BME280;9907;42.676;26.348;2022-07-23T10:11:56;98806.78;;;35.37;27.79
19526;BME280;9907;42.676;26.348;2022-07-23T10:14:30;98810.69;;;35.36;28.86
19526;BME280;9907;42.676;26.348;2022-07-23T10:16:58;98809.44;;;35.28;28.92
19526;BME280;9907;42.676;26.348;2022-07-23T10:19:24;98814.78;;;35.25;28.83
19526;BME280;9907;42.676;26.348;2022-07-23T10:21:53;98806.53;;;35.20;28.41
19526;BME280;9907;42.676;26.348;2022-07-23T10:30:02;98805.84;;;35.09;28.85
19526;BME280;9907;42.676;26.348;2022-07-23T10:35:58;98797.69;;;34.99;28.52
19526;BME280;9907;42.676;26.348;2022-07-23T10:43:21;98780.69;;;34.87;28.95
19526;BME280;9907;42.676;26.348;2022-07-23T10:45:47;98781.56;;;34.82;28.38
19526;BME280;9907;42.676;26.348;2022-07-23T10:48:20;98776.94;;;34.78;29.39
19526;BME280;9907;42.676;26.348;2022-07-23T10:51:24;98768.09;;;34.76;29.28
19526;BME280;9907;42.676;26.348;2022-07-23T10:56:50;98768.69;;;34.73;29.15
19526;BME280;9907;42.676;26.348;2022-07-23T10:59:16;98769.59;;;34.68;28.88
19526;BME280;9907;42.676;26.348;2022-07-23T11:01:41;98760.22;;;34.64;28.49
19526;BME280;9907;42.676;26.348;2022-07-23T11:04:07;98759.13;;;34.60;28.65
19526;BME280;9907;42.676;26.348;2022-07-23T11:09:32;98749.56;;;34.52;28.96
19526;BME280;9907;42.676;26.348;2022-07-23T11:17:26;98739.06;;;34.49;29.23
19526;BME280;9907;42.676;26.348;2022-07-23T11:20:21;98738.84;;;34.46;28.73
19526;BME280;9907;42.676;26.348;2022-07-23T11:22:58;98743.03;;;34.43;29.01
19526;BME280;9907;42.676;26.348;2022-07-23T11:27:51;98726.69;;;34.42;29.45
19526;BME280;9907;42.676;26.348;2022-07-23T11:32:52;98730.38;;;34.37;29.49
19526;BME280;9907;42.676;26.348;2022-07-23T11:35:22;98742.88;;;34.35;29.45
19526;BME280;9907;42.676;26.348;2022-07-23T11:37:49;98733.00;;;34.29;29.12
19526;BME280;9907;42.676;26.348;2022-07-23T11:40:19;98726.53;;;34.33;28.97
19526;BME280;9907;42.676;26.348;2022-07-23T11:43:11;98724.38;;;34.30;28.82
19526;BME280;9907;42.676;26.348;2022-07-23T11:45:45;98714.56;;;34.38;29.14
19526;BME280;9907;42.676;26.348;2022-07-23T11:48:19;98726.53;;;34.33;29.64
19526;BME280;9907;42.676;26.348;2022-07-23T11:50:45;98713.59;;;34.29;30.01
19526;BME280;9907;42.676;26.348;2022-07-23T11:53:11;98721.09;;;34.28;30.14
19526;BME280;9907;42.676;26.348;2022-07-23T11:55:37;98718.38;;;34.23;29.58
19526;BME280;9907;42.676;26.348;2022-07-23T11:58:03;98725.63;;;34.19;29.38
19526;BME280;9907;42.676;26.348;2022-07-23T12:00:30;98725.41;;;34.15;29.60
19526;BME280;9907;42.676;26.348;2022-07-23T12:02:59;98717.66;;;34.12;29.20
19526;BME280;9907;42.676;26.348;2022-07-23T12:05:36;98713.50;;;34.15;30.18
19526;BME280;9907;42.676;26.348;2022-07-23T12:08:04;98712.56;;;34.25;29.67
19526;BME280;9907;42.676;26.348;2022-07-23T12:13:03;98707.91;;;34.20;29.77
19526;BME280;9907;42.676;26.348;2022-07-23T12:15:47;98711.28;;;34.17;29.86
19526;BME280;9907;42.676;26.348;2022-07-23T12:18:17;98704.63;;;34.18;29.45
19526;BME280;9907;42.676;26.348;2022-07-23T12:20:49;98702.06;;;34.21;30.07
19526;BME280;9907;42.676;26.348;2022-07-23T12:23:17;98693.38;;;34.28;30.09
19526;BME280;9907;42.676;26.348;2022-07-23T12:25:44;98692.47;;;34.51;29.76
19526;BME280;9907;42.676;26.348;2022-07-23T12:28:18;98682.78;;;34.49;29.89
19526;BME280;9907;42.676;26.348;2022-07-23T12:30:51;98691.72;;;34.46;29.69
19526;BME280;9907;42.676;26.348;2022-07-23T12:35:53;98691.94;;;34.31;30.08
19526;BME280;9907;42.676;26.348;2022-07-23T12:38:20;98689.78;;;34.28;29.70
19526;BME280;9907;42.676;26.348;2022-07-23T12:40:59;98689.84;;;34.22;30.68
19526;BME280;9907;42.676;26.348;2022-07-23T12:43:31;98688.50;;;34.20;30.22
19526;BME280;9907;42.676;26.348;2022-07-23T12:46:05;98674.38;;;34.54;29.07
19526;BME280;9907;42.676;26.348;2022-07-23T12:51:14;98680.91;;;34.44;29.70
19526;BME280;9907;42.676;26.348;2022-07-23T12:53:47;98681.38;;;34.33;30.02
19526;BME280;9907;42.676;26.348;2022-07-23T12:56:17;98674.19;;;34.32;29.49
19526;BME280;9907;42.676;26.348;2022-07-23T13:04:03;98673.19;;;34.41;29.88
19526;BME280;9907;42.676;26.348;2022-07-23T13:06:31;98664.81;;;34.46;29.75
19526;BME280;9907;42.676;26.348;2022-07-23T13:08:57;98675.25;;;34.36;29.47
19526;BME280;9907;42.676;26.348;2022-07-23T13:11:23;98669.25;;;34.29;28.88
19526;BME280;9907;42.676;26.348;2022-07-23T13:13:49;98671.81;;;34.25;28.63
19526;BME280;9907;42.676;26.348;2022-07-23T13:16:14;98679.28;;;34.25;28.72
19526;BME280;9907;42.676;26.348;2022-07-23T13:18:40;98671.81;;;34.25;29.08
19526;BME280;9907;42.676;26.348;2022-07-23T13:21:06;98676.28;;;34.21;28.89
19526;BME280;9907;42.676;26.348;2022-07-23T13:23:31;98675.75;;;34.19;29.05
19526;BME280;9907;42.676;26.348;2022-07-23T13:25:57;98673.59;;;34.16;28.95
19526;BME280;9907;42.676;26.348;2022-07-23T13:28:22;98666.38;;;34.15;29.04
19526;BME280;9907;42.676;26.348;2022-07-23T13:30:50;98673.06;;;34.14;28.86
19526;BME280;9907;42.676;26.348;2022-07-23T13:33:20;98669.47;;;34.13;29.37
19526;BME280;9907;42.676;26.348;2022-07-23T13:35:47;98673.59;;;34.16;29.14
19526;BME280;9907;42.676;26.348;2022-07-23T13:38:13;98662.22;;;34.17;28.31
19526;BME280;9907;42.676;26.348;2022-07-23T13:40:40;98662.00;;;34.14;28.67
19526;BME280;9907;42.676;26.348;2022-07-23T13:43:08;98659.78;;;34.11;29.06
19526;BME280;9907;42.676;26.348;2022-07-23T13:45:34;98658.41;;;34.08;29.08
19526;BME280;9907;42.676;26.348;2022-07-23T13:48:00;98654.31;;;34.06;29.17
19526;BME280;9907;42.676;26.348;2022-07-23T13:50:26;98652.38;;;34.06;29.39
19526;BME280;9907;42.676;26.348;2022-07-23T13:52:51;98652.06;;;34.08;29.55
19526;BME280;9907;42.676;26.348;2022-07-23T13:55:17;98649.00;;;34.09;29.69